map of MMB home
MMB - Airport
Location
City:  Ozora, Hokkaido, Japan
Near (Alt.):Memanbetsu
Name:Memanbetsu Airport
ICAO:RJCM
IATA:MMB

Details
Type:Airport (Aerodrome, Airfield)
Use:Public/Civil
Latitude:4352'50"N (43.880606)
Longitude:14409'51"E (144.164053)
Datum:WGS 1984
Elevation:135 ft (41 m)
Variation:9.24W (WMM2015 magnetic declination)
-0.04 annual change
Runways:1
Longest:8202 × 150 ft (2500 × 45.5 m), paved

Time
Time Zone:UTC+9
Local Time:

Weather
METAR:RJCM 161100Z 19007KT 9999 FEW030 M13/M19 Q1004
TAF:RJCM 161716Z 1618/1800 19007KT 9999 FEW020 SCT050
BECMG 1623/1701 30008KT
TEMPO 1701/1706 2000 -SHSN FEW005 BKN008
TEMPO 1706/1709 28015G28KT
BECMG 1709/1712 19008KT

Related Locations
Nearby:
Farthest:PSY: 11288 mi / 18166 km
Stanley (Port Stanley) [Port Stanley], FK

Find:

   beyond  
but within

Other Information
Maps:
NOTAMs:
Links:
Sources:

  
  • flag of Japan
  • flag of Hokkaido
  

Sectional Chart

Flight Planning
at skyvector.com

Satellite Image

Google Maps Satellite view

 

Copyright © 2004-2019 Karl L. Swartz. All rights reserved.
The Great Circle Mapper name and logo are trademarks of the Great Circle Mapper.
All other trademarks mentioned herein belong to their respective owners.
Please see credits for attibutions and further copyright information.

  Follow gcmap on Facebook Follow gcmap on Twitter Follow gcmap on Google+ GCmap on LinkedIn

hCard Microformat

Geo Microformat